Time;durP1;ratioP1;P1;durP2;ratioP2;P2;SDS_P1;SDS_P2;PMS_P1;PMS_P2;Temp;Humidity;BMP_temperature;BMP_pressure;BME280_temperature;BME280_humidity;BME280_pressure;Samples;Min_cycle;Max_cycle;Signal;HPM_P1;HPM_P2
2022/11/28 00:01:15;;;;;;;2.10;1.77;;;10.80;99.90;;;;;;4995753;28;20203;-87
2022/11/28 00:03:41;;;;;;;2.22;1.90;;;10.80;99.90;;;;;;4995251;28;20169;-81
2022/11/28 00:06:07;;;;;;;5.03;2.00;;;10.70;99.90;;;;;;4994903;28;20192;-83
2022/11/28 00:08:34;;;;;;;2.30;1.70;;;10.80;99.90;;;;;;4994983;28;20173;-83
2022/11/28 00:11:08;;;;;;;4.05;1.73;;;10.90;99.90;;;;;;4996036;28;20745;-79
2022/11/28 00:13:33;;;;;;;4.57;2.30;;;10.80;99.90;;;;;;4995917;28;20173;-91
2022/11/28 00:16:01;;;;;;;1.75;1.52;;;11.10;99.90;;;;;;4995638;28;20266;-87
2022/11/28 00:18:27;;;;;;;2.17;1.90;;;10.90;99.90;;;;;;4994165;28;20170;-86
2022/11/28 00:21:03;;;;;;;3.63;1.90;;;10.70;99.90;;;;;;4996269;28;20224;-88
2022/11/28 00:23:29;;;;;;;3.50;2.25;;;10.60;99.90;;;;;;4996449;28;20169;-83
2022/11/28 00:25:59;;;;;;;1.80;1.70;;;10.40;99.90;;;;;;4995913;28;20161;-78
2022/11/28 00:28:25;;;;;;;3.47;2.00;;;10.50;99.90;;;;;;4999300;28;20196;-79
2022/11/28 00:30:50;;;;;;;2.22;1.80;;;10.60;99.90;;;;;;4998016;28;20201;-80
2022/11/28 00:33:16;;;;;;;2.42;2.20;;;10.50;99.90;;;;;;5000824;28;20173;-78
2022/11/28 00:35:41;;;;;;;2.40;1.90;;;10.50;99.90;;;;;;4998234;28;20197;-79
2022/11/28 00:38:07;;;;;;;2.47;1.88;;;10.20;99.90;;;;;;4982188;28;20173;-79
2022/11/28 00:40:32;;;;;;;2.03;1.80;;;10.20;99.90;;;;;;4999340;28;20224;-85
2022/11/28 00:42:58;;;;;;;2.05;1.85;;;10.20;99.90;;;;;;4997049;28;20656;-80
2022/11/28 00:45:24;;;;;;;3.00;2.08;;;10.20;99.90;;;;;;4997833;28;20220;-82
2022/11/28 00:47:49;;;;;;;2.85;2.00;;;9.90;99.90;;;;;;4996985;28;20233;-79
2022/11/28 00:50:15;;;;;;;2.13;1.85;;;10.10;99.90;;;;;;4996263;28;20315;-88
2022/11/28 00:52:41;;;;;;;2.33;2.10;;;10.10;99.90;;;;;;4999056;28;20252;-82
2022/11/28 00:55:07;;;;;;;2.20;2.00;;;9.90;99.90;;;;;;4965237;28;20204;-85
2022/11/28 00:57:33;;;;;;;2.58;2.38;;;9.90;99.90;;;;;;4982388;28;20209;-89
2022/11/28 00:59:58;;;;;;;2.30;2.10;;;9.90;99.90;;;;;;5000351;28;20273;-78
2022/11/28 01:02:24;;;;;;;3.63;2.35;;;9.90;99.90;;;;;;5000440;28;20610;-82
2022/11/28 01:04:50;;;;;;;3.63;2.90;;;9.90;99.90;;;;;;4999583;28;20175;-81
2022/11/28 01:07:16;;;;;;;3.88;2.83;;;10.00;99.90;;;;;;5003106;28;20148;-77
2022/11/28 01:09:42;;;;;;;4.38;2.25;;;10.00;99.90;;;;;;5001335;28;20657;-78
2022/11/28 01:12:07;;;;;;;4.55;2.40;;;9.90;99.90;;;;;;4999437;28;20196;-79
2022/11/28 01:14:33;;;;;;;3.50;2.03;;;9.90;99.90;;;;;;5004987;28;20526;-79
2022/11/28 01:17:00;;;;;;;2.97;2.53;;;9.90;99.90;;;;;;5002531;28;20288;-79
2022/11/28 01:19:25;;;;;;;2.75;2.40;;;9.90;99.90;;;;;;5004555;28;20196;-86
2022/11/28 01:21:52;;;;;;;3.70;2.67;;;10.00;99.90;;;;;;5001875;28;20208;-80
2022/11/28 01:24:17;;;;;;;5.15;3.08;;;9.90;99.90;;;;;;4984079;28;20177;-79
2022/11/28 01:26:43;;;;;;;5.57;3.03;;;9.90;99.90;;;;;;5004062;28;20248;-78
2022/11/28 01:29:10;;;;;;;3.53;3.22;;;10.10;99.90;;;;;;5003461;28;20185;-79
2022/11/28 01:31:36;;;;;;;5.28;2.78;;;10.10;99.90;;;;;;5001616;28;20181;-78
2022/11/28 01:34:01;;;;;;;3.85;2.72;;;9.90;99.90;;;;;;4999018;28;20177;-78
2022/11/28 01:36:29;;;;;;;3.03;2.20;;;9.90;99.90;;;;;;4998959;28;20201;-79
2022/11/28 01:38:54;;;;;;;3.47;2.70;;;9.90;99.90;;;;;;4997786;28;20173;-79
2022/11/28 01:41:23;;;;;;;2.40;2.20;;;10.00;99.90;;;;;;4998451;28;20684;-79
2022/11/28 01:43:59;;;;;;;3.53;2.38;;;10.10;99.90;;;;;;4994792;28;20277;-79
2022/11/28 01:46:28;;;;;;;3.08;2.80;;;10.10;99.90;;;;;;5002521;28;20207;-78
2022/11/28 01:49:01;;;;;;;3.55;2.50;;;10.10;99.90;;;;;;5006384;28;20165;-79
2022/11/28 01:51:28;;;;;;;2.88;2.53;;;10.00;99.90;;;;;;4999357;28;20201;-83
2022/11/28 01:53:54;;;;;;;4.43;2.90;;;10.00;99.90;;;;;;4998452;28;20228;-79
2022/11/28 01:56:26;;;;;;;2.85;2.33;;;9.90;99.90;;;;;;5002817;28;20205;-78
2022/11/28 01:59:00;;;;;;;2.38;2.17;;;9.90;99.90;;;;;;5007355;28;20225;-78
2022/11/28 02:01:26;;;;;;;3.10;2.80;;;9.80;99.90;;;;;;5004574;28;20232;-79
2022/11/28 02:03:53;;;;;;;3.33;3.05;;;9.80;99.90;;;;;;4997863;28;20215;-79
2022/11/28 02:06:22;;;;;;;5.50;3.33;;;9.80;99.90;;;;;;4997945;28;20166;-79
2022/11/28 02:08:54;;;;;;;3.42;3.13;;;9.90;99.90;;;;;;4993136;28;20180;-79
2022/11/28 02:11:35;;;;;;;6.00;2.88;;;9.90;99.90;;;;;;4994155;28;20185;-79
2022/11/28 02:14:09;;;;;;;2.63;2.42;;;9.80;99.90;;;;;;4994255;28;20299;-79
2022/11/28 02:17:13;;;;;;;3.45;2.50;;;9.80;99.90;;;;;;4995303;28;20263;-84
2022/11/28 02:19:50;;;;;;;7.75;3.33;;;10.00;99.90;;;;;;4960069;28;20264;-81
2022/11/28 02:22:34;;;;;;;3.35;3.05;;;10.00;99.90;;;;;;4996016;28;20176;-85
2022/11/28 02:25:34;;;;;;;3.17;2.88;;;9.90;99.90;;;;;;4996081;28;20633;-83
2022/11/28 02:28:15;;;;;;;3.47;2.53;;;9.70;99.90;;;;;;4978559;28;20209;-83
2022/11/28 02:30:58;;;;;;;3.33;3.03;;;9.60;99.90;;;;;;4959069;28;1065257;-80
2022/11/28 02:33:37;;;;;;;3.50;2.85;;;9.70;99.90;;;;;;4997873;28;20184;-85
2022/11/28 02:36:17;;;;;;;3.03;2.72;;;9.80;99.90;;;;;;4997453;28;20201;-84
2022/11/28 02:39:08;;;;;;;2.83;2.60;;;9.80;99.90;;;;;;4997376;28;20641;-83
2022/11/28 02:41:34;;;;;;;3.20;2.92;;;9.90;99.90;;;;;;4996616;28;20165;-89
2022/11/28 02:44:22;;;;;;;3.03;2.72;;;10.00;99.90;;;;;;4997167;28;20185;-83
2022/11/28 02:47:22;;;;;;;2.92;2.63;;;9.70;99.90;;;;;;4996830;28;20168;-83
2022/11/28 02:50:02;;;;;;;3.53;3.22;;;9.70;99.90;;;;;;4996562;28;20669;-83
2022/11/28 02:52:38;;;;;;;2.92;2.70;;;9.80;99.90;;;;;;4997032;28;20219;-79
2022/11/28 02:55:05;;;;;;;2.95;2.70;;;9.90;99.90;;;;;;4981163;28;20173;-88
2022/11/28 02:57:45;;;;;;;3.78;2.92;;;10.00;99.90;;;;;;4999422;28;20216;-79
2022/11/28 03:00:32;;;;;;;4.28;2.92;;;10.20;99.90;;;;;;4999168;28;20201;-79
2022/11/28 03:03:26;;;;;;;4.38;2.90;;;10.30;99.90;;;;;;5000824;28;20200;-78
2022/11/28 03:06:00;;;;;;;4.50;2.92;;;10.30;99.90;;;;;;4999184;28;20231;-78
2022/11/28 03:08:41;;;;;;;4.35;3.53;;;10.10;99.90;;;;;;5002621;28;20156;-79
2022/11/28 03:11:53;;;;;;;3.75;3.00;;;10.10;99.90;;;;;;5001378;28;20212;-79
2022/11/28 03:14:39;;;;;;;3.20;2.90;;;10.30;99.90;;;;;;5001394;28;20184;-88
2022/11/28 03:17:25;;;;;;;4.47;3.13;;;10.20;99.90;;;;;;5000919;28;20205;-82
2022/11/28 03:20:15;;;;;;;2.55;2.35;;;9.90;99.90;;;;;;4999077;28;20251;-80
2022/11/28 03:22:41;;;;;;;3.38;3.08;;;9.80;99.90;;;;;;4997409;28;20526;-87
2022/11/28 03:25:29;;;;;;;2.95;2.75;;;9.90;99.90;;;;;;4997798;28;20176;-83
2022/11/28 03:28:13;;;;;;;3.50;3.20;;;10.00;99.90;;;;;;4997059;28;20231;-92
2022/11/28 03:30:46;;;;;;;3.03;2.83;;;10.00;99.90;;;;;;4996001;28;20199;-83
2022/11/28 03:33:15;;;;;;;3.30;3.00;;;10.10;99.90;;;;;;4995992;28;20248;-81
2022/11/28 03:35:50;;;;;;;3.38;3.08;;;10.10;99.90;;;;;;4978445;28;20169;-88
2022/11/28 03:38:26;;;;;;;3.40;3.10;;;10.00;99.90;;;;;;4995200;28;20227;-82
2022/11/28 03:40:56;;;;;;;3.00;2.70;;;10.20;99.90;;;;;;4994707;28;20280;-87
2022/11/28 03:43:29;;;;;;;4.35;3.17;;;10.10;99.90;;;;;;4994624;28;20192;-81
2022/11/28 03:45:59;;;;;;;2.80;2.55;;;10.00;99.90;;;;;;4994615;28;20232;-87
2022/11/28 03:48:34;;;;;;;3.88;3.13;;;10.10;99.90;;;;;;4976987;28;20180;-80
2022/11/28 03:51:08;;;;;;;4.13;3.75;;;10.00;99.90;;;;;;4994414;28;20255;-89
2022/11/28 03:53:53;;;;;;;3.05;2.75;;;10.00;99.90;;;;;;4994568;28;20197;-90
2022/11/28 03:56:30;;;;;;;3.22;2.92;;;10.00;99.90;;;;;;4976831;28;20208;-85
2022/11/28 03:59:16;;;;;;;3.55;2.75;;;10.10;99.90;;;;;;4994084;28;20236;-91
2022/11/28 04:02:05;;;;;;;2.35;2.15;;;10.30;99.90;;;;;;4994153;28;20170;-84
2022/11/28 04:04:50;;;;;;;2.75;2.55;;;10.40;99.90;;;;;;4993578;28;20184;-85
2022/11/28 04:07:27;;;;;;;3.35;2.58;;;10.20;99.90;;;;;;4994306;28;20172;-84
2022/11/28 04:10:08;;;;;;;5.65;2.35;;;10.40;99.90;;;;;;5001854;28;20224;-83
2022/11/28 04:12:44;;;;;;;3.22;2.65;;;10.40;99.90;;;;;;4999854;28;20169;-86
2022/11/28 04:15:35;;;;;;;3.72;3.30;;;10.40;99.90;;;;;;5000729;28;20169;-84
2022/11/28 04:18:23;;;;;;;2.85;2.65;;;10.40;99.90;;;;;;4997603;28;20215;-86
2022/11/28 04:21:00;;;;;;;3.28;3.03;;;10.30;99.90;;;;;;4994043;28;20560;-78
2022/11/28 04:23:28;;;;;;;3.17;2.63;;;10.40;99.90;;;;;;4994028;28;20168;-84
2022/11/28 04:26:03;;;;;;;2.80;2.60;;;10.10;99.90;;;;;;4994761;28;20165;-86
2022/11/28 04:28:32;;;;;;;3.97;3.67;;;10.20;99.90;;;;;;4994203;28;20232;-84
2022/11/28 04:31:01;;;;;;;3.00;2.70;;;10.20;99.90;;;;;;4994841;28;20193;-91
2022/11/28 04:33:31;;;;;;;3.35;3.08;;;10.20;99.90;;;;;;4998809;28;20200;-86
2022/11/28 04:35:58;;;;;;;3.45;2.97;;;10.20;99.90;;;;;;4999627;28;20220;-91
2022/11/28 04:38:27;;;;;;;7.32;3.55;;;10.10;99.90;;;;;;4998349;28;20192;-85
2022/11/28 04:41:12;;;;;;;3.97;3.67;;;10.20;99.90;;;;;;4997927;28;20193;-80
2022/11/28 04:43:42;;;;;;;3.60;3.30;;;10.20;99.90;;;;;;4997869;28;20219;-89
2022/11/28 04:46:23;;;;;;;4.03;3.70;;;10.40;99.90;;;;;;4997904;28;20176;-85
2022/11/28 04:48:49;;;;;;;5.43;4.93;;;10.40;99.90;;;;;;4997534;28;20189;-82
2022/11/28 04:51:21;;;;;;;4.88;4.43;;;10.40;99.90;;;;;;4997452;28;20712;-85
2022/11/28 04:54:07;;;;;;;4.72;4.25;;;10.50;99.90;;;;;;4997542;28;20189;-84
2022/11/28 04:56:58;;;;;;;4.78;4.28;;;10.50;99.90;;;;;;4997070;28;20244;-86
2022/11/28 04:59:26;;;;;;;5.70;4.72;;;10.30;99.90;;;;;;4997030;28;20201;-90
2022/11/28 05:01:54;;;;;;;4.72;4.32;;;10.30;99.90;;;;;;4997570;28;20177;-91
2022/11/28 05:04:19;;;;;;;5.97;4.05;;;10.20;99.90;;;;;;4997439;28;20165;-83
2022/11/28 05:06:45;;;;;;;4.07;3.78;;;10.30;99.90;;;;;;4997591;28;20179;-88
2022/11/28 05:09:12;;;;;;;5.30;4.80;;;10.50;99.90;;;;;;4979689;28;20653;-78
2022/11/28 05:11:38;;;;;;;7.80;4.07;;;10.60;99.90;;;;;;4997334;28;20208;-88
2022/11/28 05:14:03;;;;;;;6.60;4.53;;;10.50;99.90;;;;;;4997518;28;20253;-83
2022/11/28 05:16:29;;;;;;;5.20;4.70;;;10.50;99.90;;;;;;4997152;28;20706;-81
2022/11/28 05:18:54;;;;;;;5.40;4.90;;;10.70;99.90;;;;;;4996789;28;20173;-88
2022/11/28 05:21:20;;;;;;;4.88;4.47;;;10.70;99.90;;;;;;4996699;28;20192;-78
2022/11/28 05:23:46;;;;;;;7.03;4.97;;;10.50;99.90;;;;;;4996907;28;20165;-86
2022/11/28 05:26:18;;;;;;;5.00;4.60;;;10.40;99.90;;;;;;4996951;28;20165;-88
2022/11/28 05:28:46;;;;;;;9.55;5.75;;;10.30;99.90;;;;;;4997025;28;20248;-90
2022/11/28 05:31:12;;;;;;;5.38;4.97;;;10.30;99.90;;;;;;4996602;28;20669;-90
2022/11/28 05:33:38;;;;;;;5.93;5.43;;;10.50;99.90;;;;;;4979430;28;20236;-80
2022/11/28 05:36:06;;;;;;;8.63;5.45;;;10.60;99.90;;;;;;4996869;28;20205;-85
2022/11/28 05:38:35;;;;;;;5.72;5.22;;;10.60;99.90;;;;;;4997006;28;20252;-89
2022/11/28 05:41:01;;;;;;;6.07;5.57;;;10.60;99.90;;;;;;4996744;28;20185;-83
2022/11/28 05:43:27;;;;;;;6.45;5.95;;;10.80;99.90;;;;;;4997747;28;20192;-79
2022/11/28 05:45:53;;;;;;;6.25;5.68;;;10.60;99.90;;;;;;4996830;28;20172;-83
2022/11/28 05:48:19;;;;;;;7.28;6.28;;;10.70;99.90;;;;;;4997422;28;20207;-89
2022/11/28 05:50:45;;;;;;;7.65;5.80;;;10.80;99.90;;;;;;4997048;28;20189;-80
2022/11/28 05:53:20;;;;;;;9.23;5.90;;;10.90;99.90;;;;;;4997005;28;20169;-79
2022/11/28 05:55:46;;;;;;;6.20;5.70;;;10.90;99.90;;;;;;4997251;28;20168;-79
2022/11/28 05:58:12;;;;;;;6.95;6.28;;;10.70;99.90;;;;;;4996891;28;20178;-83
2022/11/28 06:00:38;;;;;;;6.75;6.05;;;10.60;99.90;;;;;;4979314;28;20665;-79
2022/11/28 06:03:41;;;;;;;7.43;6.72;;;10.70;99.90;;;;;;4996892;28;20219;-81
2022/11/28 06:06:15;;;;;;;7.65;7.05;;;10.80;99.90;;;;;;4970481;28;20181;-80
2022/11/28 06:08:44;;;;;;;7.03;6.50;;;10.80;99.90;;;;;;4995750;28;20167;-88
2022/11/28 06:11:10;;;;;;;6.97;6.38;;;10.80;99.90;;;;;;4997119;28;20193;-88
2022/11/28 06:13:36;;;;;;;7.60;7.00;;;10.70;99.90;;;;;;4997103;28;20157;-87
2022/11/28 06:16:05;;;;;;;7.53;6.75;;;10.70;99.90;;;;;;4996577;28;20662;-85
2022/11/28 06:18:31;;;;;;;7.20;6.60;;;10.70;99.90;;;;;;4997124;28;20641;-80
2022/11/28 06:21:03;;;;;;;7.18;6.63;;;10.70;99.90;;;;;;4980039;28;20189;-91
2022/11/28 06:23:30;;;;;;;7.57;6.88;;;10.40;99.90;;;;;;4997597;28;20192;-90
2022/11/28 06:25:56;;;;;;;7.82;7.00;;;10.50;99.90;;;;;;4997429;28;20549;-92
2022/11/28 06:28:22;;;;;;;8.23;7.53;;;10.60;99.90;;;;;;4979631;28;20177;-90
2022/11/28 06:30:48;;;;;;;7.88;7.20;;;10.80;99.90;;;;;;4996470;28;20197;-91
2022/11/28 06:33:13;;;;;;;8.10;7.40;;;10.90;99.90;;;;;;4995393;28;20268;-85
2022/11/28 06:35:39;;;;;;;7.75;7.15;;;10.90;99.90;;;;;;4994776;28;20211;-82
2022/11/28 06:38:05;;;;;;;7.68;6.95;;;11.00;99.90;;;;;;4995103;28;20173;-80
2022/11/28 06:40:31;;;;;;;9.07;8.23;;;11.10;99.90;;;;;;4977360;28;20686;-80
2022/11/28 06:42:56;;;;;;;8.93;7.25;;;11.00;99.90;;;;;;4994397;28;20173;-77
2022/11/28 06:45:22;;;;;;;12.55;6.80;;;10.90;99.90;;;;;;4994652;28;20169;-79
2022/11/28 06:47:48;;;;;;;8.25;7.55;;;10.70;99.90;;;;;;4994619;28;20561;-79
2022/11/28 06:50:13;;;;;;;7.80;7.10;;;10.70;99.90;;;;;;4994551;28;20211;-82
2022/11/28 06:52:39;;;;;;;7.25;6.65;;;10.90;99.90;;;;;;4994297;28;20169;-77
2022/11/28 06:55:05;;;;;;;7.15;6.55;;;10.90;99.90;;;;;;4993372;28;20526;-78
2022/11/28 06:57:31;;;;;;;7.47;6.88;;;10.90;99.90;;;;;;4994212;28;20215;-83
2022/11/28 06:59:57;;;;;;;6.70;6.20;;;10.90;99.90;;;;;;4994453;28;20185;-80
2022/11/28 07:02:23;;;;;;;7.28;6.68;;;10.90;99.90;;;;;;4994351;28;20492;-77
2022/11/28 07:04:49;;;;;;;9.30;5.85;;;10.80;99.90;;;;;;4994071;28;20518;-77
2022/11/28 07:07:15;;;;;;;7.45;6.80;;;10.70;99.90;;;;;;4993805;28;20175;-79
2022/11/28 07:09:42;;;;;;;7.28;6.57;;;10.70;99.90;;;;;;4994125;28;20185;-82
2022/11/28 07:12:07;;;;;;;6.32;5.72;;;10.80;99.90;;;;;;4994474;28;20183;-82
2022/11/28 07:14:33;;;;;;;7.40;6.28;;;10.80;99.90;;;;;;4994160;28;20612;-79
2022/11/28 07:16:59;;;;;;;6.40;5.80;;;11.00;99.90;;;;;;4994307;28;20213;-84
2022/11/28 07:19:24;;;;;;;7.65;6.88;;;11.00;99.90;;;;;;4993909;28;20196;-79
2022/11/28 07:21:50;;;;;;;6.57;6.07;;;11.20;99.90;;;;;;4994065;28;20231;-77
2022/11/28 07:24:17;;;;;;;6.15;5.65;;;11.10;99.90;;;;;;4993894;28;20169;-79
2022/11/28 07:26:44;;;;;;;6.63;6.13;;;11.00;99.90;;;;;;4994343;28;20634;-79
2022/11/28 07:29:15;;;;;;;7.78;6.97;;;11.10;99.90;;;;;;4993889;28;20669;-79
2022/11/28 07:31:41;;;;;;;7.05;6.35;;;11.20;99.90;;;;;;4993493;28;20187;-79
2022/11/28 07:34:08;;;;;;;6.50;6.00;;;11.20;99.90;;;;;;4994017;28;20579;-81
2022/11/28 07:36:33;;;;;;;7.85;7.15;;;11.20;99.90;;;;;;4975724;28;20216;-79
2022/11/28 07:39:01;;;;;;;7.60;6.88;;;11.10;99.90;;;;;;4993101;28;20165;-79
2022/11/28 07:41:28;;;;;;;7.07;6.38;;;11.20;99.90;;;;;;4993802;28;20172;-78
2022/11/28 07:43:56;;;;;;;7.90;7.10;;;11.30;99.90;;;;;;4993935;28;20830;-79
2022/11/28 07:46:23;;;;;;;8.90;8.00;;;11.20;99.90;;;;;;4993310;28;20169;-79
2022/11/28 07:48:49;;;;;;;8.82;8.00;;;11.20;99.90;;;;;;5006261;28;20180;-80
2022/11/28 07:51:23;;;;;;;8.00;7.30;;;11.40;99.90;;;;;;5013386;28;20195;-87
2022/11/28 07:53:49;;;;;;;8.48;7.60;;;11.20;99.90;;;;;;5014606;28;20167;-83
2022/11/28 07:56:18;;;;;;;8.82;8.02;;;11.10;99.90;;;;;;5000257;28;20292;-85
2022/11/28 07:58:45;;;;;;;9.10;8.30;;;10.90;99.90;;;;;;5015295;28;20177;-85
2022/11/28 08:01:13;;;;;;;9.13;7.60;;;10.70;99.90;;;;;;5017277;28;20202;-87
2022/11/28 08:03:39;;;;;;;9.98;7.75;;;10.90;99.90;;;;;;5019139;28;20234;-87
2022/11/28 08:06:06;;;;;;;11.30;9.65;;;11.00;99.90;;;;;;5012631;28;20172;-79
2022/11/28 08:08:32;;;;;;;9.45;8.55;;;11.00;99.90;;;;;;5012698;28;20592;-81
2022/11/28 08:11:02;;;;;;;12.40;9.45;;;11.10;99.90;;;;;;4993417;28;20343;-83
2022/11/28 08:13:28;;;;;;;10.70;8.95;;;11.20;99.90;;;;;;4994784;28;20184;-82
2022/11/28 08:15:54;;;;;;;9.70;8.80;;;11.30;99.90;;;;;;5008331;28;20185;-82
2022/11/28 08:18:20;;;;;;;10.98;9.60;;;11.30;99.90;;;;;;4990291;28;20175;-83
2022/11/28 08:20:46;;;;;;;11.80;8.52;;;11.40;99.90;;;;;;5019021;28;20192;-78
2022/11/28 08:23:11;;;;;;;9.73;8.73;;;11.30;99.90;;;;;;5029391;28;20724;-79
2022/11/28 08:25:37;;;;;;;12.68;9.18;;;11.30;99.90;;;;;;5026321;28;20175;-81
2022/11/28 08:28:03;;;;;;;13.13;9.05;;;11.20;99.90;;;;;;5033270;28;20183;-79
2022/11/28 08:30:28;;;;;;;10.23;8.82;;;11.20;99.90;;;;;;5035525;28;20179;-80
2022/11/28 08:32:54;;;;;;;14.00;10.63;;;11.30;99.90;;;;;;5035194;28;20237;-79
2022/11/28 08:35:20;;;;;;;23.98;13.95;;;11.40;99.90;;;;;;5035020;28;20172;-81
2022/11/28 08:37:46;;;;;;;14.95;11.60;;;11.30;99.90;;;;;;5007936;28;20235;-80
2022/11/28 08:40:12;;;;;;;11.43;10.20;;;11.40;99.90;;;;;;5016987;28;20234;-84
2022/11/28 08:42:38;;;;;;;10.02;8.82;;;11.30;99.90;;;;;;5014215;28;20180;-80
2022/11/28 08:45:05;;;;;;;10.07;8.90;;;11.20;99.90;;;;;;5013869;28;20164;-82
2022/11/28 08:47:31;;;;;;;12.07;9.48;;;11.40;99.90;;;;;;5014576;28;20269;-83
2022/11/28 08:49:56;;;;;;;12.75;9.55;;;11.30;99.90;;;;;;5018512;28;20227;-80
2022/11/28 08:52:22;;;;;;;13.63;9.98;;;11.20;99.90;;;;;;5015655;28;20199;-79
2022/11/28 08:54:48;;;;;;;11.57;8.65;;;11.30;99.90;;;;;;5013783;28;20176;-81
2022/11/28 08:57:13;;;;;;;9.65;8.63;;;11.40;99.90;;;;;;5013076;28;20277;-83
2022/11/28 08:59:39;;;;;;;9.30;8.38;;;11.50;99.90;;;;;;5013336;28;20185;-83
2022/11/28 09:02:05;;;;;;;11.85;8.52;;;11.40;99.90;;;;;;4995397;28;20176;-84
2022/11/28 09:04:31;;;;;;;9.02;8.15;;;11.40;99.90;;;;;;5012931;28;20498;-83
2022/11/28 09:06:56;;;;;;;10.65;8.70;;;11.50;99.90;;;;;;4996158;28;20523;-80
2022/11/28 09:09:22;;;;;;;11.63;8.80;;;11.30;99.90;;;;;;5015603;28;20653;-80
2022/11/28 09:11:47;;;;;;;12.32;8.60;;;11.30;99.90;;;;;;5015474;28;20232;-82
2022/11/28 09:14:13;;;;;;;10.65;8.82;;;11.40;99.90;;;;;;5015246;28;20166;-83
2022/11/28 09:16:39;;;;;;;13.77;9.07;;;11.30;99.90;;;;;;5013318;28;20243;-81
2022/11/28 09:19:07;;;;;;;14.02;8.60;;;11.50;99.90;;;;;;5016051;28;20251;-81
2022/11/28 09:21:34;;;;;;;9.43;8.18;;;11.50;99.90;;;;;;5016042;28;20199;-81
2022/11/28 09:23:59;;;;;;;21.70;8.95;;;11.50;99.90;;;;;;5016248;28;20169;-80
2022/11/28 09:26:25;;;;;;;12.45;8.95;;;11.50;99.90;;;;;;4998230;28;20171;-82
2022/11/28 09:28:51;;;;;;;12.52;8.40;;;11.50;99.90;;;;;;5016413;28;20199;-79
2022/11/28 09:31:18;;;;;;;13.25;8.77;;;11.60;99.90;;;;;;4998311;28;20250;-80
2022/11/28 09:33:45;;;;;;;14.63;8.20;;;11.70;99.90;;;;;;5015840;28;20172;-80
2022/11/28 09:36:16;;;;;;;14.65;8.25;;;11.60;99.90;;;;;;4998202;28;20208;-80
2022/11/28 09:38:42;;;;;;;10.57;8.57;;;11.60;99.90;;;;;;4998111;28;20645;-81
2022/11/28 09:41:38;;;;;;;8.75;7.88;;;11.50;99.90;;;;;;4997962;28;20219;-80
2022/11/28 09:44:22;;;;;;;10.23;9.07;;;11.60;99.90;;;;;;4997837;28;20176;-81
2022/11/28 09:46:52;;;;;;;11.50;8.98;;;11.70;99.90;;;;;;5015331;28;20276;-85
2022/11/28 09:49:30;;;;;;;10.95;7.68;;;11.70;99.90;;;;;;4997643;28;20179;-80
2022/11/28 09:52:06;;;;;;;13.23;8.50;;;11.50;99.90;;;;;;4997884;28;20179;-82
2022/11/28 09:55:05;;;;;;;14.13;8.50;;;11.70;99.90;;;;;;4997961;28;20250;-80
2022/11/28 09:57:41;;;;;;;13.07;8.60;;;11.90;99.90;;;;;;4971733;28;20251;-81
2022/11/28 10:00:18;;;;;;;10.93;8.48;;;12.00;99.90;;;;;;5015217;28;20180;-83
2022/11/28 10:03:06;;;;;;;8.43;7.55;;;12.10;99.90;;;;;;5015139;28;20231;-81
2022/11/28 10:05:37;;;;;;;13.95;7.53;;;12.10;99.90;;;;;;4997303;28;20180;-81
2022/11/28 10:08:24;;;;;;;12.15;8.27;;;12.20;99.90;;;;;;4997271;28;20169;-82
2022/11/28 10:11:08;;;;;;;11.52;8.27;;;12.20;99.90;;;;;;5014964;28;20245;-81
2022/11/28 10:14:08;;;;;;;12.63;8.55;;;12.00;99.90;;;;;;5014828;28;20205;-80
2022/11/28 10:17:11;;;;;;;9.90;7.78;;;12.20;99.90;;;;;;5014570;28;20209;-80
2022/11/28 10:19:50;;;;;;;16.50;8.00;;;12.20;99.90;;;;;;4996589;28;20189;-80
2022/11/28 10:22:28;;;;;;;10.25;7.65;;;12.10;99.90;;;;;;5014424;28;20175;-80
2022/11/28 10:24:58;;;;;;;9.52;7.75;;;12.30;99.90;;;;;;5014260;28;20189;-80
2022/11/28 10:27:32;;;;;;;7.50;6.78;;;12.20;99.90;;;;;;5014484;28;20180;-80
2022/11/28 10:30:03;;;;;;;13.07;7.13;;;12.50;99.90;;;;;;5013303;28;20216;-80
2022/11/28 10:32:40;;;;;;;13.25;8.10;;;12.40;99.90;;;;;;5014306;28;20189;-80
2022/11/28 10:35:17;;;;;;;16.23;8.13;;;12.60;99.90;;;;;;5014869;28;20168;-83
2022/11/28 10:37:43;;;;;;;8.73;7.85;;;12.70;99.90;;;;;;4996700;28;20575;-81
2022/11/28 10:40:38;;;;;;;9.70;7.53;;;12.60;99.90;;;;;;5014254;28;20187;-83
2022/11/28 10:43:45;;;;;;;11.18;7.70;;;12.60;99.90;;;;;;5014231;28;20179;-81
2022/11/28 10:46:26;;;;;;;11.88;7.28;;;12.90;99.90;;;;;;4997275;28;20234;-80
2022/11/28 10:48:58;;;;;;;9.65;7.95;;;12.90;99.90;;;;;;4996241;28;20186;-83
2022/11/28 10:51:47;;;;;;;11.00;8.65;;;12.70;99.90;;;;;;4996446;28;20243;-79
2022/11/28 10:54:24;;;;;;;10.05;7.90;;;12.70;99.90;;;;;;5014068;28;20165;-79
2022/11/28 10:57:07;;;;;;;14.68;8.20;;;12.50;99.90;;;;;;4996258;28;20592;-79
2022/11/28 11:00:17;;;;;;;11.55;7.95;;;12.40;99.90;;;;;;5014203;28;20346;-79
2022/11/28 11:02:51;;;;;;;8.93;7.65;;;12.50;99.90;;;;;;4953767;28;20188;-79
2022/11/28 11:05:22;;;;;;;9.15;7.78;;;12.50;99.90;;;;;;5013865;28;20163;-79
2022/11/28 11:07:52;;;;;;;13.30;8.13;;;12.50;99.90;;;;;;5013709;28;20540;-79
2022/11/28 11:10:24;;;;;;;15.65;7.88;;;12.60;99.90;;;;;;5013824;28;20181;-79
2022/11/28 11:12:52;;;;;;;15.32;9.13;;;12.40;99.90;;;;;;5013752;28;20168;-79
2022/11/28 11:15:29;;;;;;;9.55;8.65;;;12.50;99.90;;;;;;5013641;28;20255;-80
2022/11/28 11:17:56;;;;;;;15.57;9.15;;;12.50;99.90;;;;;;5000996;28;20205;-80
2022/11/28 11:20:27;;;;;;;16.17;8.27;;;12.50;99.90;;;;;;4993678;28;20189;-81
2022/11/28 11:22:55;;;;;;;14.70;8.27;;;12.50;99.90;;;;;;4993769;28;20238;-84
2022/11/28 11:25:23;;;;;;;9.63;8.60;;;12.60;99.90;;;;;;4976543;28;20220;-80
2022/11/28 11:27:51;;;;;;;15.73;7.72;;;12.60;99.90;;;;;;4975551;28;20519;-82
2022/11/28 11:30:29;;;;;;;11.55;9.50;;;12.50;99.90;;;;;;4993593;28;20260;-82
2022/11/28 11:32:57;;;;;;;23.33;9.43;;;12.70;99.90;;;;;;4993439;28;20181;-80
2022/11/28 11:35:44;;;;;;;8.43;7.05;;;12.80;99.90;;;;;;4993447;28;20622;-80
2022/11/28 11:38:21;;;;;;;12.30;7.95;;;12.60;99.90;;;;;;4993783;28;20189;-80
2022/11/28 11:40:48;;;;;;;19.65;7.90;;;12.70;99.90;;;;;;4993120;28;20669;-80
2022/11/28 11:43:31;;;;;;;18.67;8.82;;;12.80;99.90;;;;;;4993538;28;20306;-80
2022/11/28 11:46:05;;;;;;;16.83;8.38;;;12.80;99.90;;;;;;4976189;28;20665;-81
2022/11/28 11:48:35;;;;;;;12.27;7.85;;;12.80;99.90;;;;;;4993222;28;20165;-80
2022/11/28 11:51:01;;;;;;;9.75;8.57;;;12.90;99.90;;;;;;4993214;28;20197;-80
2022/11/28 11:53:26;;;;;;;8.70;7.45;;;13.00;99.90;;;;;;4975405;28;20271;-80
2022/11/28 11:55:54;;;;;;;23.52;9.20;;;12.70;99.90;;;;;;4992795;28;20165;-82
2022/11/28 11:58:33;;;;;;;16.38;8.50;;;12.80;99.90;;;;;;4992300;28;20181;-79
2022/11/28 12:01:01;;;;;;;13.05;9.25;;;12.90;99.90;;;;;;4993123;28;20537;-79
2022/11/28 12:03:36;;;;;;;15.48;9.15;;;12.60;99.90;;;;;;4993052;28;20165;-79
2022/11/28 12:06:22;;;;;;;14.60;9.35;;;12.50;99.90;;;;;;4992988;28;20621;-80
2022/11/28 12:09:06;;;;;;;17.90;11.15;;;12.50;99.90;;;;;;4993366;28;20161;-79
2022/11/28 12:11:39;;;;;;;27.80;14.77;;;12.70;99.90;;;;;;4975461;28;20180;-79
2022/11/28 12:14:26;;;;;;;15.30;10.52;;;12.60;99.90;;;;;;4992959;28;20245;-79
2022/11/28 12:16:58;;;;;;;12.80;8.20;;;12.50;99.90;;;;;;4993071;28;20212;-79
2022/11/28 12:19:55;;;;;;;11.65;9.35;;;12.50;99.90;;;;;;4993039;28;20221;-79
2022/11/28 12:22:43;;;;;;;16.88;11.13;;;12.60;99.90;;;;;;4992748;28;20642;-81
2022/11/28 12:25:54;;;;;;;12.98;9.48;;;12.40;99.90;;;;;;4992337;28;20641;-79
2022/11/28 12:28:37;;;;;;;21.67;8.75;;;12.70;99.90;;;;;;4970912;28;20181;-79
2022/11/28 12:31:39;;;;;;;11.57;8.63;;;12.70;99.90;;;;;;4970761;28;20240;-79
2022/11/28 12:34:27;;;;;;;11.25;7.63;;;12.60;99.90;;;;;;4953598;28;20577;-80
2022/11/28 12:37:15;;;;;;;14.55;8.18;;;12.30;99.90;;;;;;4974884;28;20232;-80
2022/11/28 12:40:11;;;;;;;12.38;8.90;;;12.30;99.90;;;;;;4991790;28;20654;-79
2022/11/28 12:42:40;;;;;;;14.10;8.70;;;12.30;99.90;;;;;;4992341;28;20230;-81
2022/11/28 12:45:44;;;;;;;11.98;8.38;;;12.30;99.90;;;;;;4975323;28;20315;-81
2022/11/28 12:48:49;;;;;;;20.08;7.93;;;12.60;99.90;;;;;;4992668;28;20216;-81
2022/11/28 12:51:53;;;;;;;14.98;9.10;;;12.60;99.90;;;;;;4975268;28;20240;-81
2022/11/28 12:54:25;;;;;;;11.55;8.52;;;12.60;99.90;;;;;;4997041;28;20169;-81
2022/11/28 12:57:16;;;;;;;12.93;8.32;;;12.70;99.90;;;;;;4996558;28;20209;-79
2022/11/28 12:59:57;;;;;;;16.75;8.30;;;12.90;99.90;;;;;;4970070;28;20621;-80
2022/11/28 13:02:47;;;;;;;19.60;8.27;;;13.10;99.90;;;;;;4979556;28;20177;-81
2022/11/28 13:05:27;;;;;;;12.90;8.73;;;13.10;99.90;;;;;;4996603;28;20529;-81
2022/11/28 13:08:17;;;;;;;16.98;9.10;;;13.30;99.90;;;;;;4996465;28;20176;-79
2022/11/28 13:10:56;;;;;;;22.13;8.65;;;13.30;99.90;;;;;;4996515;28;20197;-80
2022/11/28 13:13:30;;;;;;;14.25;9.50;;;13.10;99.90;;;;;;4979116;28;20694;-79
2022/11/28 13:16:15;;;;;;;22.92;8.40;;;12.90;99.90;;;;;;4996471;28;20181;-80